Time;durP1;ratioP1;P1;durP2;ratioP2;P2;SDS_P1;SDS_P2;PMS_P1;PMS_P2;Temp;Humidity;BMP_temperature;BMP_pressure;BME280_temperature;BME280_humidity;BME280_pressure;Samples;Min_cycle;Max_cycle;Signal;HPM_P1;HPM_P2
2023/09/26 00:06:28;;;;;;;16.83;6.72;;;;;;;24.32;39.47;101139.63;31453024;28;20044;-73
2023/09/26 00:21:31;;;;;;;60.47;29.73;;;;;;;24.07;39.63;101147.41;31445584;28;20505;-74
2023/09/26 00:36:33;;;;;;;24.20;8.87;;;;;;;23.87;41.12;101149.38;31460814;28;20053;-75
2023/09/26 00:51:37;;;;;;;21.15;8.32;;;;;;;23.73;42.36;101159.31;31451302;28;20128;-75
2023/09/26 01:06:41;;;;;;;17.42;7.45;;;;;;;23.32;43.58;101173.06;31426739;28;20084;-74
2023/09/26 01:21:43;;;;;;;18.67;6.63;;;;;;;23.15;44.26;101177.56;31444194;28;20103;-81
2023/09/26 01:36:45;;;;;;;13.57;6.13;;;;;;;22.82;44.96;101179.81;31473142;28;20122;-80
2023/09/26 01:51:47;;;;;;;10.93;5.95;;;;;;;22.81;44.67;101172.75;31467664;28;20052;-82
2023/09/26 02:06:49;;;;;;;18.15;6.18;;;;;;;22.73;44.99;101184.16;31472792;28;20080;-81
2023/09/26 02:21:51;;;;;;;10.25;5.63;;;;;;;22.21;45.95;101187.69;31463967;28;20057;-81
2023/09/26 02:36:53;;;;;;;11.48;5.22;;;;;;;21.96;47.08;101203.50;31469212;28;20099;-81
2023/09/26 02:51:55;;;;;;;11.57;5.88;;;;;;;21.60;48.14;101201.72;31464191;28;20059;-81
2023/09/26 03:06:57;;;;;;;16.65;7.20;;;;;;;21.40;49.13;101209.78;31472069;28;20440;-80
2023/09/26 03:21:59;;;;;;;9.77;6.45;;;;;;;21.27;49.46;101200.91;31484329;28;20078;-81
2023/09/26 03:37:01;;;;;;;14.70;7.43;;;;;;;21.30;50.01;101211.81;31460658;28;20052;-81
2023/09/26 03:52:03;;;;;;;14.45;7.35;;;;;;;21.20;50.93;101234.38;31490367;28;20048;-82
2023/09/26 04:07:06;;;;;;;24.92;8.30;;;;;;;21.15;51.24;101249.56;31493049;28;20048;-86
2023/09/26 04:22:08;;;;;;;10.68;7.15;;;;;;;21.42;51.65;101263.34;31493960;28;20101;-78
2023/09/26 04:37:11;;;;;;;14.95;6.18;;;;;;;22.13;51.14;101272.25;31457875;28;20045;-78
2023/09/26 04:52:13;;;;;;;18.88;8.50;;;;;;;22.44;50.93;101273.41;31493006;28;20052;-78
2023/09/26 05:07:16;;;;;;;27.55;7.63;;;;;;;23.29;50.58;101279.31;31484341;28;20155;-78
2023/09/26 05:22:18;;;;;;;25.90;8.18;;;;;;;24.07;49.70;101280.53;31497700;28;20056;-77
2023/09/26 05:37:20;;;;;;;18.13;7.32;;;;;;;25.26;47.18;101281.41;31482718;28;20063;-77
2023/09/26 05:52:22;;;;;;;16.48;6.65;;;;;;;26.65;45.74;101284.28;31471824;28;20053;-75
2023/09/26 06:07:26;;;;;;;16.83;6.47;;;;;;;27.99;43.78;101297.53;31465396;28;20060;-75
2023/09/26 06:22:28;;;;;;;25.27;9.35;;;;;;;29.60;41.02;101295.13;31477415;28;20048;-76
2023/09/26 06:37:30;;;;;;;20.50;7.32;;;;;;;30.79;40.10;101283.56;31481017;28;20498;-74
2023/09/26 06:52:33;;;;;;;22.02;8.55;;;;;;;31.61;39.22;101289.69;31485838;28;20076;-77
2023/09/26 07:07:35;;;;;;;16.35;8.35;;;;;;;32.55;38.02;101281.47;31494994;28;20562;-77
2023/09/26 07:22:37;;;;;;;19.20;7.30;;;;;;;33.91;35.92;101269.94;31468934;28;20068;-77
2023/09/26 07:37:40;;;;;;;19.60;8.48;;;;;;;34.89;34.14;101263.19;31476396;28;20063;-78
2023/09/26 07:52:42;;;;;;;12.85;4.35;;;;;;;35.56;32.61;101246.84;31458746;28;20413;-84
2023/09/26 08:07:44;;;;;;;8.07;5.50;;;;;;;36.23;31.88;101245.13;31452540;28;20350;-83
2023/09/26 08:22:48;;;;;;;6.95;3.38;;;;;;;36.53;30.05;101232.19;31484882;28;20045;-84
2023/09/26 08:37:50;;;;;;;6.30;3.65;;;;;;;36.82;29.05;101216.38;31489730;28;20057;-83
2023/09/26 08:52:57;;;;;;;15.48;4.10;;;;;;;36.87;29.13;101223.84;31504034;28;20280;-84
2023/09/26 09:07:59;;;;;;;10.32;6.50;;;;;;;37.34;27.85;101213.66;31487633;28;20088;-84
2023/09/26 09:23:03;;;;;;;9.23;6.03;;;;;;;37.33;27.68;101209.31;31505598;28;20094;-83
2023/09/26 09:38:08;;;;;;;6.07;2.95;;;;;;;37.77;27.37;101191.69;31497461;28;20119;-83
2023/09/26 09:53:16;;;;;;;4.47;2.47;;;;;;;38.10;26.32;101183.69;31477454;28;20051;-80
2023/09/26 10:08:19;;;;;;;4.80;2.85;;;;;;;38.37;26.56;101172.38;31462329;28;20114;-75
2023/09/26 10:23:46;;;;;;;7.93;5.32;;;;;;;38.02;26.50;101168.91;31476182;28;20071;-84
2023/09/26 10:39:05;;;;;;;5.65;3.78;;;;;;;38.10;26.84;101167.44;31446429;28;20080;-78
2023/09/26 10:54:08;;;;;;;6.82;3.33;;;;;;;37.72;26.39;101155.88;31481263;28;20508;-79
2023/09/26 11:09:11;;;;;;;6.18;3.00;;;;;;;37.41;26.51;101149.78;31463663;28;20095;-76
2023/09/26 11:24:33;;;;;;;3.80;2.70;;;;;;;38.15;25.85;101143.78;31439966;28;20052;-77
2023/09/26 11:39:38;;;;;;;11.98;4.70;;;;;;;39.38;25.17;101129.06;31438857;28;20040;-80
2023/09/26 11:54:40;;;;;;;7.65;3.72;;;;;;;38.52;25.27;101116.16;31457775;28;20088;-75
2023/09/26 12:09:44;;;;;;;8.18;3.40;;;;;;;35.55;27.30;101107.72;31496321;28;20057;-84
2023/09/26 12:24:47;;;;;;;5.13;3.35;;;;;;;34.32;28.44;101102.00;31488200;28;20514;-82
2023/09/26 12:39:49;;;;;;;6.82;3.30;;;;;;;33.39;29.01;101100.16;31526308;28;20053;-81
2023/09/26 12:54:51;;;;;;;9.50;3.88;;;;;;;33.07;29.39;101099.78;31482660;28;20048;-79
2023/09/26 13:09:54;;;;;;;5.03;3.33;;;;;;;32.67;29.37;101091.56;31464797;28;20462;-80
2023/09/26 13:24:56;;;;;;;5.32;3.03;;;;;;;32.53;29.75;101087.34;31551594;28;20060;-78
2023/09/26 13:39:58;;;;;;;6.57;3.20;;;;;;;32.43;29.90;101089.88;31543496;28;20044;-81
2023/09/26 13:55:00;;;;;;;12.15;5.68;;;;;;;32.33;30.14;101086.03;31502800;28;20099;-80
2023/09/26 14:10:02;;;;;;;12.10;7.22;;;;;;;32.14;30.50;101080.56;31459759;28;20056;-79
2023/09/26 14:25:11;;;;;;;7.63;3.47;;;;;;;31.99;31.06;101085.28;31481361;28;20060;-78
2023/09/26 14:40:13;;;;;;;5.88;3.85;;;;;;;31.86;31.09;101094.50;31488310;28;20071;-77
2023/09/26 14:55:16;;;;;;;8.07;4.75;;;;;;;31.58;31.70;101091.53;31453223;28;20056;-79
2023/09/26 15:10:18;;;;;;;6.50;4.13;;;;;;;31.19;32.57;101079.03;31455811;28;20045;-79
2023/09/26 15:25:20;;;;;;;13.27;4.93;;;;;;;30.85;33.26;101085.25;31462255;28;20064;-77
2023/09/26 15:40:22;;;;;;;6.75;4.20;;;;;;;30.37;34.60;101091.13;31460274;28;20041;-77
2023/09/26 15:55:24;;;;;;;10.02;4.18;;;;;;;30.00;35.49;101092.69;31461455;28;20135;-78
2023/09/26 16:10:26;;;;;;;21.08;6.03;;;;;;;29.71;36.71;101111.13;31457751;28;20512;-76
2023/09/26 16:25:28;;;;;;;;;;;;;;;29.34;38.36;101117.38;31469910;28;20044;-78
2023/09/26 16:40:30;;;;;;;11.73;5.53;;;;;;;29.07;38.25;101126.78;31446359;28;19994;-78
2023/09/26 16:55:32;;;;;;;10.27;4.90;;;;;;;28.79;39.01;101152.94;31484959;28;20091;-78
2023/09/26 17:10:35;;;;;;;20.95;6.97;;;;;;;28.54;39.54;101165.34;31468001;28;20166;-76
2023/09/26 17:25:38;;;;;;;;;;;;;;;28.43;39.25;101160.56;31460543;28;20114;-76
2023/09/26 17:40:40;;;;;;;32.10;15.77;;;;;;;28.25;38.76;101155.59;31457328;28;19931;-77
2023/09/26 17:55:43;;;;;;;35.30;18.23;;;;;;;28.10;38.75;101169.13;31468294;28;20058;-77
2023/09/26 18:10:46;;;;;;;27.55;11.70;;;;;;;27.89;39.00;101162.34;31477391;28;20060;-78
2023/09/26 18:25:48;;;;;;;25.33;10.83;;;;;;;27.56;39.66;101163.97;31479197;28;20496;-75
2023/09/26 18:40:50;;;;;;;17.30;7.97;;;;;;;27.22;40.58;101177.22;31461880;28;20072;-77
2023/09/26 18:55:52;;;;;;;31.10;13.10;;;;;;;27.06;40.91;101172.41;31463706;28;20052;-77
2023/09/26 19:10:55;;;;;;;14.80;6.90;;;;;;;26.94;41.31;101170.84;31462941;28;20060;-76
2023/09/26 19:25:57;;;;;;;14.57;9.37;;;;;;;26.78;41.65;101156.44;31474007;28;20090;-79
2023/09/26 19:40:59;;;;;;;17.70;8.13;;;;;;;26.79;41.46;101157.94;31464429;28;20075;-76
2023/09/26 19:56:01;;;;;;;16.37;7.37;;;;;;;26.59;41.92;101158.19;31444645;28;20049;-80
2023/09/26 20:11:04;;;;;;;29.80;15.00;;;;;;;26.46;42.73;101153.09;31454090;28;20085;-76
2023/09/26 20:26:08;;;;;;;13.60;6.72;;;;;;;26.35;43.71;101155.13;31490565;28;20051;-85
2023/09/26 20:41:10;;;;;;;12.73;6.23;;;;;;;25.96;44.41;101163.31;31487749;28;20056;-83
2023/09/26 20:56:12;;;;;;;15.70;7.38;;;;;;;25.64;44.73;101159.88;31487147;28;20175;-83
2023/09/26 21:11:14;;;;;;;20.27;11.18;;;;;;;25.32;45.85;101162.69;31499941;28;20582;-83
2023/09/26 21:26:20;;;;;;;13.45;7.15;;;;;;;25.18;46.48;101154.53;31496651;28;20430;-84
2023/09/26 21:41:22;;;;;;;16.80;7.40;;;;;;;25.16;46.22;101155.00;31496095;28;20453;-83
2023/09/26 21:56:25;;;;;;;15.70;7.68;;;;;;;25.01;46.44;101155.16;31508528;28;20075;-88
2023/09/26 22:11:29;;;;;;;20.83;8.20;;;;;;;24.88;46.81;101157.53;31508753;28;20149;-83
2023/09/26 22:26:31;;;;;;;22.33;10.55;;;;;;;24.82;46.76;101154.72;31505257;28;20080;-83
2023/09/26 22:41:33;;;;;;;62.20;24.05;;;;;;;24.71;46.62;101157.41;31498897;28;20044;-83
2023/09/26 22:56:35;;;;;;;17.13;8.50;;;;;;;24.69;47.47;101157.13;31494539;28;20057;-83
2023/09/26 23:11:40;;;;;;;18.42;8.73;;;;;;;24.47;47.59;101162.47;31509079;28;20052;-83
2023/09/26 23:26:43;;;;;;;14.03;8.10;;;;;;;24.30;48.12;101150.44;31521329;28;20453;-82
2023/09/26 23:41:45;;;;;;;24.63;11.37;;;;;;;24.13;48.11;101156.53;31503040;28;20476;-82
2023/09/26 23:56:47;;;;;;;21.02;9.68;;;;;;;23.93;48.75;101148.22;31495474;28;20496;-84
